sensor_id;sensor_type;location;lat;lon;timestamp;temperature;humidity
18173;DHT22;9211;48.818;9.312;2022-10-23T00:00:19;11.50;99.90
18173;DHT22;9211;48.818;9.312;2022-10-23T00:02:51;11.50;99.90
18173;DHT22;9211;48.818;9.312;2022-10-23T00:05:18;11.50;99.90
18173;DHT22;9211;48.818;9.312;2022-10-23T00:07:48;11.40;99.90
18173;DHT22;9211;48.818;9.312;2022-10-23T00:10:18;11.40;99.90
18173;DHT22;9211;48.818;9.312;2022-10-23T00:12:46;11.40;99.90
18173;DHT22;9211;48.818;9.312;2022-10-23T00:15:15;11.30;99.90
18173;DHT22;9211;48.818;9.312;2022-10-23T00:17:42;11.30;99.90
18173;DHT22;9211;48.818;9.312;2022-10-23T00:20:10;11.30;99.90
18173;DHT22;9211;48.818;9.312;2022-10-23T00:22:37;11.30;99.90
18173;DHT22;9211;48.818;9.312;2022-10-23T00:25:06;11.30;99.90
18173;DHT22;9211;48.818;9.312;2022-10-23T00:27:34;11.30;99.90
18173;DHT22;9211;48.818;9.312;2022-10-23T00:30:03;11.30;99.90
18173;DHT22;9211;48.818;9.312;2022-10-23T00:32:31;11.20;99.90
18173;DHT22;9211;48.818;9.312;2022-10-23T00:34:58;11.20;99.90
18173;DHT22;9211;48.818;9.312;2022-10-23T00:37:25;11.20;99.90
18173;DHT22;9211;48.818;9.312;2022-10-23T00:39:52;11.20;99.90
18173;DHT22;9211;48.818;9.312;2022-10-23T00:42:20;11.10;99.90
18173;DHT22;9211;48.818;9.312;2022-10-23T00:47:53;11.10;99.90
18173;DHT22;9211;48.818;9.312;2022-10-23T00:50:22;11.10;99.90
18173;DHT22;9211;48.818;9.312;2022-10-23T00:52:52;11.00;99.90
18173;DHT22;9211;48.818;9.312;2022-10-23T00:55:21;11.00;99.90
18173;DHT22;9211;48.818;9.312;2022-10-23T00:57:49;11.10;99.90
18173;DHT22;9211;48.818;9.312;2022-10-23T01:00:19;11.10;99.90
18173;DHT22;9211;48.818;9.312;2022-10-23T01:02:46;11.00;99.90
18173;DHT22;9211;48.818;9.312;2022-10-23T01:05:15;10.80;99.90
18173;DHT22;9211;48.818;9.312;2022-10-23T01:07:49;10.70;99.90
18173;DHT22;9211;48.818;9.312;2022-10-23T01:10:25;10.60;99.90
18173;DHT22;9211;48.818;9.312;2022-10-23T01:12:59;10.70;99.90
18173;DHT22;9211;48.818;9.312;2022-10-23T01:15:33;10.70;99.90
18173;DHT22;9211;48.818;9.312;2022-10-23T01:18:06;10.70;99.90
18173;DHT22;9211;48.818;9.312;2022-10-23T01:20:40;10.70;99.90
18173;DHT22;9211;48.818;9.312;2022-10-23T01:23:23;10.70;99.90
18173;DHT22;9211;48.818;9.312;2022-10-23T01:26:24;10.70;99.90
18173;DHT22;9211;48.818;9.312;2022-10-23T01:28:59;10.60;99.90
18173;DHT22;9211;48.818;9.312;2022-10-23T01:31:34;10.70;99.90
18173;DHT22;9211;48.818;9.312;2022-10-23T01:34:06;10.60;99.90
18173;DHT22;9211;48.818;9.312;2022-10-23T01:36:36;10.60;99.90
18173;DHT22;9211;48.818;9.312;2022-10-23T01:39:07;10.60;99.90
18173;DHT22;9211;48.818;9.312;2022-10-23T01:41:41;10.60;99.90
18173;DHT22;9211;48.818;9.312;2022-10-23T01:44:15;10.60;99.90
18173;DHT22;9211;48.818;9.312;2022-10-23T01:46:46;10.50;99.90
18173;DHT22;9211;48.818;9.312;2022-10-23T01:49:16;10.50;99.90
18173;DHT22;9211;48.818;9.312;2022-10-23T01:51:45;10.50;99.90
18173;DHT22;9211;48.818;9.312;2022-10-23T01:54:16;10.50;99.90
18173;DHT22;9211;48.818;9.312;2022-10-23T01:56:47;10.50;99.90
18173;DHT22;9211;48.818;9.312;2022-10-23T01:59:21;10.40;99.90
18173;DHT22;9211;48.818;9.312;2022-10-23T02:01:52;10.50;99.90
18173;DHT22;9211;48.818;9.312;2022-10-23T02:04:24;10.50;99.90
18173;DHT22;9211;48.818;9.312;2022-10-23T02:06:53;10.40;99.90
18173;DHT22;9211;48.818;9.312;2022-10-23T02:09:20;10.40;99.90
18173;DHT22;9211;48.818;9.312;2022-10-23T02:11:53;10.30;99.90
18173;DHT22;9211;48.818;9.312;2022-10-23T02:14:29;10.40;99.90
18173;DHT22;9211;48.818;9.312;2022-10-23T02:17:05;10.40;99.90
18173;DHT22;9211;48.818;9.312;2022-10-23T02:19:39;10.50;99.90
18173;DHT22;9211;48.818;9.312;2022-10-23T02:22:12;10.40;99.90
18173;DHT22;9211;48.818;9.312;2022-10-23T02:24:44;10.40;99.90
18173;DHT22;9211;48.818;9.312;2022-10-23T02:27:19;10.30;99.90
18173;DHT22;9211;48.818;9.312;2022-10-23T02:29:58;10.30;99.90
18173;DHT22;9211;48.818;9.312;2022-10-23T02:32:29;10.30;99.90
18173;DHT22;9211;48.818;9.312;2022-10-23T02:34:56;10.30;99.90
18173;DHT22;9211;48.818;9.312;2022-10-23T02:37:24;10.20;99.90
18173;DHT22;9211;48.818;9.312;2022-10-23T02:39:52;10.20;99.90
18173;DHT22;9211;48.818;9.312;2022-10-23T02:42:25;10.20;99.90
18173;DHT22;9211;48.818;9.312;2022-10-23T02:45:02;10.20;99.90
18173;DHT22;9211;48.818;9.312;2022-10-23T02:47:36;10.20;99.90
18173;DHT22;9211;48.818;9.312;2022-10-23T02:50:09;10.40;99.90
18173;DHT22;9211;48.818;9.312;2022-10-23T02:52:50;10.30;99.90
18173;DHT22;9211;48.818;9.312;2022-10-23T02:55:30;10.30;99.90
18173;DHT22;9211;48.818;9.312;2022-10-23T02:58:04;10.20;99.90
18173;DHT22;9211;48.818;9.312;2022-10-23T03:00:44;10.20;99.90
18173;DHT22;9211;48.818;9.312;2022-10-23T03:03:14;10.30;99.90
18173;DHT22;9211;48.818;9.312;2022-10-23T03:05:44;10.20;99.90
18173;DHT22;9211;48.818;9.312;2022-10-23T03:08:13;10.20;99.90
18173;DHT22;9211;48.818;9.312;2022-10-23T03:10:41;10.20;99.90
18173;DHT22;9211;48.818;9.312;2022-10-23T03:13:10;10.20;99.90
18173;DHT22;9211;48.818;9.312;2022-10-23T03:15:43;10.20;99.90
18173;DHT22;9211;48.818;9.312;2022-10-23T03:18:12;10.20;99.90
18173;DHT22;9211;48.818;9.312;2022-10-23T03:20:45;10.20;99.90
18173;DHT22;9211;48.818;9.312;2022-10-23T03:23:13;10.20;99.90
18173;DHT22;9211;48.818;9.312;2022-10-23T03:25:41;10.10;99.90
18173;DHT22;9211;48.818;9.312;2022-10-23T03:28:10;10.10;99.90
18173;DHT22;9211;48.818;9.312;2022-10-23T03:30:37;10.10;99.90
18173;DHT22;9211;48.818;9.312;2022-10-23T03:33:05;10.10;99.90
18173;DHT22;9211;48.818;9.312;2022-10-23T03:35:34;10.10;99.90
18173;DHT22;9211;48.818;9.312;2022-10-23T03:38:01;10.20;99.90
18173;DHT22;9211;48.818;9.312;2022-10-23T03:40:28;10.20;99.90
18173;DHT22;9211;48.818;9.312;2022-10-23T03:42:55;10.10;99.90
18173;DHT22;9211;48.818;9.312;2022-10-23T03:45:22;10.20;99.90
18173;DHT22;9211;48.818;9.312;2022-10-23T03:47:50;10.20;99.90
18173;DHT22;9211;48.818;9.312;2022-10-23T03:50:18;10.10;99.90
18173;DHT22;9211;48.818;9.312;2022-10-23T03:52:45;10.10;99.90
18173;DHT22;9211;48.818;9.312;2022-10-23T03:55:12;10.10;99.90
18173;DHT22;9211;48.818;9.312;2022-10-23T03:57:39;10.00;99.90
18173;DHT22;9211;48.818;9.312;2022-10-23T04:00:08;10.10;99.90
18173;DHT22;9211;48.818;9.312;2022-10-23T04:02:46;10.10;99.90
18173;DHT22;9211;48.818;9.312;2022-10-23T04:05:13;10.20;99.90
18173;DHT22;9211;48.818;9.312;2022-10-23T04:07:50;10.20;99.90
18173;DHT22;9211;48.818;9.312;2022-10-23T04:10:18;10.10;99.90
18173;DHT22;9211;48.818;9.312;2022-10-23T04:12:45;10.10;99.90
18173;DHT22;9211;48.818;9.312;2022-10-23T04:15:11;10.10;99.90
18173;DHT22;9211;48.818;9.312;2022-10-23T04:17:41;10.10;99.90
18173;DHT22;9211;48.818;9.312;2022-10-23T04:20:08;10.00;99.90
18173;DHT22;9211;48.818;9.312;2022-10-23T04:22:35;10.00;99.90
18173;DHT22;9211;48.818;9.312;2022-10-23T04:25:04;10.10;99.90
18173;DHT22;9211;48.818;9.312;2022-10-23T04:27:33;10.10;99.90
18173;DHT22;9211;48.818;9.312;2022-10-23T04:30:00;10.10;99.90
18173;DHT22;9211;48.818;9.312;2022-10-23T04:32:28;10.10;99.90
18173;DHT22;9211;48.818;9.312;2022-10-23T04:34:56;10.10;99.90
18173;DHT22;9211;48.818;9.312;2022-10-23T04:37:23;10.10;99.90
18173;DHT22;9211;48.818;9.312;2022-10-23T04:39:50;10.00;99.90
18173;DHT22;9211;48.818;9.312;2022-10-23T04:42:19;10.10;99.90
18173;DHT22;9211;48.818;9.312;2022-10-23T04:44:46;9.90;99.90
18173;DHT22;9211;48.818;9.312;2022-10-23T04:47:13;10.00;99.90
18173;DHT22;9211;48.818;9.312;2022-10-23T04:49:52;10.10;99.90
18173;DHT22;9211;48.818;9.312;2022-10-23T04:52:34;10.10;99.90
18173;DHT22;9211;48.818;9.312;2022-10-23T04:55:12;10.10;99.90
18173;DHT22;9211;48.818;9.312;2022-10-23T04:57:45;10.10;99.90
18173;DHT22;9211;48.818;9.312;2022-10-23T05:00:14;10.10;99.90
18173;DHT22;9211;48.818;9.312;2022-10-23T05:02:51;10.10;99.90
18173;DHT22;9211;48.818;9.312;2022-10-23T05:05:19;10.10;99.90
18173;DHT22;9211;48.818;9.312;2022-10-23T05:08:01;10.20;99.90
18173;DHT22;9211;48.818;9.312;2022-10-23T05:10:51;10.10;99.90
18173;DHT22;9211;48.818;9.312;2022-10-23T05:13:20;10.10;99.90
18173;DHT22;9211;48.818;9.312;2022-10-23T05:15:47;10.20;99.90
18173;DHT22;9211;48.818;9.312;2022-10-23T05:18:20;10.20;99.90
18173;DHT22;9211;48.818;9.312;2022-10-23T05:20:53;10.30;99.90
18173;DHT22;9211;48.818;9.312;2022-10-23T05:23:22;10.20;99.90
18173;DHT22;9211;48.818;9.312;2022-10-23T05:25:54;10.30;99.90
18173;DHT22;9211;48.818;9.312;2022-10-23T05:28:23;10.30;99.90
18173;DHT22;9211;48.818;9.312;2022-10-23T05:30:50;10.30;99.90
18173;DHT22;9211;48.818;9.312;2022-10-23T05:33:21;10.30;99.90
18173;DHT22;9211;48.818;9.312;2022-10-23T05:35:49;10.40;99.90
18173;DHT22;9211;48.818;9.312;2022-10-23T05:38:16;10.30;99.90
18173;DHT22;9211;48.818;9.312;2022-10-23T05:40:43;10.30;99.90
18173;DHT22;9211;48.818;9.312;2022-10-23T05:43:16;10.30;99.90
18173;DHT22;9211;48.818;9.312;2022-10-23T05:45:51;10.30;99.90
18173;DHT22;9211;48.818;9.312;2022-10-23T05:48:36;10.30;99.90
18173;DHT22;9211;48.818;9.312;2022-10-23T05:51:12;10.30;99.90
18173;DHT22;9211;48.818;9.312;2022-10-23T05:53:50;10.20;99.90
18173;DHT22;9211;48.818;9.312;2022-10-23T05:56:29;10.30;99.90
18173;DHT22;9211;48.818;9.312;2022-10-23T05:59:15;10.30;99.90
18173;DHT22;9211;48.818;9.312;2022-10-23T06:02:02;10.30;99.90
18173;DHT22;9211;48.818;9.312;2022-10-23T06:04:44;10.30;99.90
18173;DHT22;9211;48.818;9.312;2022-10-23T06:07:30;10.30;99.90
18173;DHT22;9211;48.818;9.312;2022-10-23T06:09:59;10.30;99.90
18173;DHT22;9211;48.818;9.312;2022-10-23T06:12:26;10.20;99.90
18173;DHT22;9211;48.818;9.312;2022-10-23T06:14:53;10.20;99.90
18173;DHT22;9211;48.818;9.312;2022-10-23T06:17:28;10.30;99.90
18173;DHT22;9211;48.818;9.312;2022-10-23T06:19:55;10.20;99.90
18173;DHT22;9211;48.818;9.312;2022-10-23T06:22:27;10.20;99.90
18173;DHT22;9211;48.818;9.312;2022-10-23T06:25:08;10.20;99.90
18173;DHT22;9211;48.818;9.312;2022-10-23T06:27:35;10.30;99.90
18173;DHT22;9211;48.818;9.312;2022-10-23T06:30:05;10.30;99.90
18173;DHT22;9211;48.818;9.312;2022-10-23T06:32:33;10.40;99.90
18173;DHT22;9211;48.818;9.312;2022-10-23T06:35:09;10.50;99.90
18173;DHT22;9211;48.818;9.312;2022-10-23T06:37:37;10.50;99.90
18173;DHT22;9211;48.818;9.312;2022-10-23T06:40:09;10.50;99.90
18173;DHT22;9211;48.818;9.312;2022-10-23T06:42:50;10.60;99.90
18173;DHT22;9211;48.818;9.312;2022-10-23T06:45:40;10.60;99.90
18173;DHT22;9211;48.818;9.312;2022-10-23T06:48:15;10.60;99.90
18173;DHT22;9211;48.818;9.312;2022-10-23T06:51:03;10.60;99.90
18173;DHT22;9211;48.818;9.312;2022-10-23T06:53:43;10.70;99.90
18173;DHT22;9211;48.818;9.312;2022-10-23T06:56:31;10.70;99.90
18173;DHT22;9211;48.818;9.312;2022-10-23T06:59:00;10.70;99.90
18173;DHT22;9211;48.818;9.312;2022-10-23T07:01:28;10.70;99.90
18173;DHT22;9211;48.818;9.312;2022-10-23T07:03:57;10.90;99.90
18173;DHT22;9211;48.818;9.312;2022-10-23T07:06:25;10.90;99.90
18173;DHT22;9211;48.818;9.312;2022-10-23T07:08:53;10.90;99.90
18173;DHT22;9211;48.818;9.312;2022-10-23T07:11:52;11.00;99.90
18173;DHT22;9211;48.818;9.312;2022-10-23T07:14:26;11.10;99.90
18173;DHT22;9211;48.818;9.312;2022-10-23T07:16:57;11.10;99.90
18173;DHT22;9211;48.818;9.312;2022-10-23T07:19:28;11.10;99.90
18173;DHT22;9211;48.818;9.312;2022-10-23T07:21:57;11.20;99.90
18173;DHT22;9211;48.818;9.312;2022-10-23T07:24:38;11.20;99.90
18173;DHT22;9211;48.818;9.312;2022-10-23T07:27:38;11.30;99.90
18173;DHT22;9211;48.818;9.312;2022-10-23T07:30:08;11.30;99.90
18173;DHT22;9211;48.818;9.312;2022-10-23T07:32:49;11.40;99.90
18173;DHT22;9211;48.818;9.312;2022-10-23T07:35:39;11.50;99.90
18173;DHT22;9211;48.818;9.312;2022-10-23T07:38:13;11.50;99.90
18173;DHT22;9211;48.818;9.312;2022-10-23T07:40:47;11.50;99.90
18173;DHT22;9211;48.818;9.312;2022-10-23T07:43:17;11.60;99.90
18173;DHT22;9211;48.818;9.312;2022-10-23T07:45:46;11.60;99.90
18173;DHT22;9211;48.818;9.312;2022-10-23T07:48:23;11.70;99.90
18173;DHT22;9211;48.818;9.312;2022-10-23T07:51:00;11.70;99.90
18173;DHT22;9211;48.818;9.312;2022-10-23T07:53:35;11.80;99.90
18173;DHT22;9211;48.818;9.312;2022-10-23T07:56:12;11.80;99.90
18173;DHT22;9211;48.818;9.312;2022-10-23T07:59:00;11.90;99.90
18173;DHT22;9211;48.818;9.312;2022-10-23T08:01:30;11.90;99.90
18173;DHT22;9211;48.818;9.312;2022-10-23T08:03:57;12.00;99.90
18173;DHT22;9211;48.818;9.312;2022-10-23T08:06:26;12.10;99.90
18173;DHT22;9211;48.818;9.312;2022-10-23T08:08:53;12.20;99.90
18173;DHT22;9211;48.818;9.312;2022-10-23T08:11:22;12.20;99.90
18173;DHT22;9211;48.818;9.312;2022-10-23T08:13:53;12.30;99.90
18173;DHT22;9211;48.818;9.312;2022-10-23T08:16:25;12.30;99.90
18173;DHT22;9211;48.818;9.312;2022-10-23T08:19:18;12.30;99.90
18173;DHT22;9211;48.818;9.312;2022-10-23T08:21:49;12.40;99.90
18173;DHT22;9211;48.818;9.312;2022-10-23T08:24:19;12.40;99.90
18173;DHT22;9211;48.818;9.312;2022-10-23T08:26:48;12.50;99.90
18173;DHT22;9211;48.818;9.312;2022-10-23T08:29:17;12.50;99.90
18173;DHT22;9211;48.818;9.312;2022-10-23T08:31:45;12.60;99.90
18173;DHT22;9211;48.818;9.312;2022-10-23T08:34:23;12.60;99.90
18173;DHT22;9211;48.818;9.312;2022-10-23T08:36:54;12.70;99.90
18173;DHT22;9211;48.818;9.312;2022-10-23T08:39:22;12.70;99.90
18173;DHT22;9211;48.818;9.312;2022-10-23T08:42:03;12.70;99.90
18173;DHT22;9211;48.818;9.312;2022-10-23T08:44:34;12.80;99.90
18173;DHT22;9211;48.818;9.312;2022-10-23T08:47:05;12.80;99.90
18173;DHT22;9211;48.818;9.312;2022-10-23T08:49:55;12.90;99.90
18173;DHT22;9211;48.818;9.312;2022-10-23T08:52:29;13.00;99.90
18173;DHT22;9211;48.818;9.312;2022-10-23T08:55:05;13.00;99.90
18173;DHT22;9211;48.818;9.312;2022-10-23T08:57:37;13.00;99.90
18173;DHT22;9211;48.818;9.312;2022-10-23T09:00:12;13.10;99.90
18173;DHT22;9211;48.818;9.312;2022-10-23T09:02:41;13.10;99.90
18173;DHT22;9211;48.818;9.312;2022-10-23T09:05:14;13.10;99.90
18173;DHT22;9211;48.818;9.312;2022-10-23T09:10:50;13.20;99.90
18173;DHT22;9211;48.818;9.312;2022-10-23T09:13:40;13.30;99.90
18173;DHT22;9211;48.818;9.312;2022-10-23T09:16:16;13.30;99.90
18173;DHT22;9211;48.818;9.312;2022-10-23T09:18:45;13.30;99.90
18173;DHT22;9211;48.818;9.312;2022-10-23T09:21:13;13.40;99.90
18173;DHT22;9211;48.818;9.312;2022-10-23T09:23:42;13.40;99.90
18173;DHT22;9211;48.818;9.312;2022-10-23T09:26:13;13.50;99.90
18173;DHT22;9211;48.818;9.312;2022-10-23T09:28:46;13.50;99.90
18173;DHT22;9211;48.818;9.312;2022-10-23T09:31:13;13.60;99.90
18173;DHT22;9211;48.818;9.312;2022-10-23T09:33:41;13.60;99.90
18173;DHT22;9211;48.818;9.312;2022-10-23T09:36:18;13.60;99.90
18173;DHT22;9211;48.818;9.312;2022-10-23T09:38:49;13.70;99.90
18173;DHT22;9211;48.818;9.312;2022-10-23T09:41:19;13.70;99.90
18173;DHT22;9211;48.818;9.312;2022-10-23T09:43:59;13.90;99.90
18173;DHT22;9211;48.818;9.312;2022-10-23T09:46:36;13.90;99.90
18173;DHT22;9211;48.818;9.312;2022-10-23T09:49:04;14.10;99.90
18173;DHT22;9211;48.818;9.312;2022-10-23T09:51:32;14.20;99.90
18173;DHT22;9211;48.818;9.312;2022-10-23T09:54:00;14.30;99.90
18173;DHT22;9211;48.818;9.312;2022-10-23T09:56:30;14.40;99.90
18173;DHT22;9211;48.818;9.312;2022-10-23T09:59:00;14.40;99.90
18173;DHT22;9211;48.818;9.312;2022-10-23T10:01:29;14.60;99.90
18173;DHT22;9211;48.818;9.312;2022-10-23T10:04:16;14.70;99.90
18173;DHT22;9211;48.818;9.312;2022-10-23T10:06:44;14.80;99.90
18173;DHT22;9211;48.818;9.312;2022-10-23T10:09:14;14.80;99.90
18173;DHT22;9211;48.818;9.312;2022-10-23T10:11:43;14.80;99.90
18173;DHT22;9211;48.818;9.312;2022-10-23T10:14:30;14.90;99.90
18173;DHT22;9211;48.818;9.312;2022-10-23T10:17:05;15.00;99.90
18173;DHT22;9211;48.818;9.312;2022-10-23T10:19:42;15.10;99.90
18173;DHT22;9211;48.818;9.312;2022-10-23T10:22:23;15.20;99.90
18173;DHT22;9211;48.818;9.312;2022-10-23T10:24:57;15.30;99.90
18173;DHT22;9211;48.818;9.312;2022-10-23T10:27:35;15.40;99.90
18173;DHT22;9211;48.818;9.312;2022-10-23T10:30:11;15.40;99.90
18173;DHT22;9211;48.818;9.312;2022-10-23T10:32:43;15.50;99.90
18173;DHT22;9211;48.818;9.312;2022-10-23T10:35:33;15.60;99.90
18173;DHT22;9211;48.818;9.312;2022-10-23T10:38:13;15.70;99.90
18173;DHT22;9211;48.818;9.312;2022-10-23T10:40:55;15.80;99.90
18173;DHT22;9211;48.818;9.312;2022-10-23T10:43:39;15.90;99.90
18173;DHT22;9211;48.818;9.312;2022-10-23T10:46:12;16.10;99.90
18173;DHT22;9211;48.818;9.312;2022-10-23T10:48:43;16.20;99.90
18173;DHT22;9211;48.818;9.312;2022-10-23T10:51:37;16.30;99.90
18173;DHT22;9211;48.818;9.312;2022-10-23T10:54:19;16.60;99.90
18173;DHT22;9211;48.818;9.312;2022-10-23T10:56:49;16.80;99.90
18173;DHT22;9211;48.818;9.312;2022-10-23T10:59:22;16.80;99.90
18173;DHT22;9211;48.818;9.312;2022-10-23T11:01:52;16.90;99.90
18173;DHT22;9211;48.818;9.312;2022-10-23T11:04:29;16.90;99.90
18173;DHT22;9211;48.818;9.312;2022-10-23T11:07:04;16.90;99.90
18173;DHT22;9211;48.818;9.312;2022-10-23T11:09:32;17.00;99.90
18173;DHT22;9211;48.818;9.312;2022-10-23T11:12:01;17.00;99.90
18173;DHT22;9211;48.818;9.312;2022-10-23T11:14:30;17.10;99.90
18173;DHT22;9211;48.818;9.312;2022-10-23T11:17:03;17.20;99.90
18173;DHT22;9211;48.818;9.312;2022-10-23T11:19:38;17.20;99.90
18173;DHT22;9211;48.818;9.312;2022-10-23T11:22:10;17.30;99.90
18173;DHT22;9211;48.818;9.312;2022-10-23T11:25:13;17.30;99.90
18173;DHT22;9211;48.818;9.312;2022-10-23T11:28:06;17.30;99.90
18173;DHT22;9211;48.818;9.312;2022-10-23T11:30:46;17.40;99.90
18173;DHT22;9211;48.818;9.312;2022-10-23T11:33:51;17.40;99.90
18173;DHT22;9211;48.818;9.312;2022-10-23T11:36:40;17.50;99.90
18173;DHT22;9211;48.818;9.312;2022-10-23T11:39:19;17.50;99.90
18173;DHT22;9211;48.818;9.312;2022-10-23T11:41:49;17.60;99.90
18173;DHT22;9211;48.818;9.312;2022-10-23T11:44:39;17.70;99.90
18173;DHT22;9211;48.818;9.312;2022-10-23T11:47:26;17.80;99.90
18173;DHT22;9211;48.818;9.312;2022-10-23T11:50:10;17.90;99.90
18173;DHT22;9211;48.818;9.312;2022-10-23T11:52:40;18.00;99.90
18173;DHT22;9211;48.818;9.312;2022-10-23T11:55:19;18.00;99.90
18173;DHT22;9211;48.818;9.312;2022-10-23T11:58:08;18.00;99.90
18173;DHT22;9211;48.818;9.312;2022-10-23T12:00:50;18.10;99.90
18173;DHT22;9211;48.818;9.312;2022-10-23T12:03:21;18.10;99.90
18173;DHT22;9211;48.818;9.312;2022-10-23T12:05:56;18.10;99.90
18173;DHT22;9211;48.818;9.312;2022-10-23T12:08:26;18.10;99.90
18173;DHT22;9211;48.818;9.312;2022-10-23T12:10:54;18.20;99.90
18173;DHT22;9211;48.818;9.312;2022-10-23T12:13:44;18.30;99.90
18173;DHT22;9211;48.818;9.312;2022-10-23T12:16:13;18.30;99.90
18173;DHT22;9211;48.818;9.312;2022-10-23T12:18:51;18.40;99.90
18173;DHT22;9211;48.818;9.312;2022-10-23T12:21:23;18.50;99.90
18173;DHT22;9211;48.818;9.312;2022-10-23T12:24:05;18.50;99.90
18173;DHT22;9211;48.818;9.312;2022-10-23T12:26:46;18.50;99.90
18173;DHT22;9211;48.818;9.312;2022-10-23T12:29:27;18.50;99.90
18173;DHT22;9211;48.818;9.312;2022-10-23T12:32:06;18.50;99.90
18173;DHT22;9211;48.818;9.312;2022-10-23T12:34:41;18.60;99.90
18173;DHT22;9211;48.818;9.312;2022-10-23T12:37:34;18.70;99.90
18173;DHT22;9211;48.818;9.312;2022-10-23T12:40:08;18.70;99.90
18173;DHT22;9211;48.818;9.312;2022-10-23T12:42:36;18.70;99.90
18173;DHT22;9211;48.818;9.312;2022-10-23T12:45:14;18.70;99.90
18173;DHT22;9211;48.818;9.312;2022-10-23T12:47:45;18.80;99.90
18173;DHT22;9211;48.818;9.312;2022-10-23T12:50:17;18.90;99.90
18173;DHT22;9211;48.818;9.312;2022-10-23T12:52:50;19.00;99.90
18173;DHT22;9211;48.818;9.312;2022-10-23T12:55:18;19.00;99.90
18173;DHT22;9211;48.818;9.312;2022-10-23T12:57:45;19.00;99.90
18173;DHT22;9211;48.818;9.312;2022-10-23T13:00:16;19.00;99.90
18173;DHT22;9211;48.818;9.312;2022-10-23T13:02:44;19.00;99.90
18173;DHT22;9211;48.818;9.312;2022-10-23T13:05:16;19.00;99.90
18173;DHT22;9211;48.818;9.312;2022-10-23T13:07:45;19.20;99.90
18173;DHT22;9211;48.818;9.312;2022-10-23T13:10:16;19.40;99.90
18173;DHT22;9211;48.818;9.312;2022-10-23T13:12:53;19.50;99.90
18173;DHT22;9211;48.818;9.312;2022-10-23T13:15:22;19.50;99.90
18173;DHT22;9211;48.818;9.312;2022-10-23T13:18:01;19.50;99.90
18173;DHT22;9211;48.818;9.312;2022-10-23T13:20:30;19.40;99.90
18173;DHT22;9211;48.818;9.312;2022-10-23T13:23:07;19.30;99.90
18173;DHT22;9211;48.818;9.312;2022-10-23T13:25:36;19.40;99.90
18173;DHT22;9211;48.818;9.312;2022-10-23T13:28:15;19.40;99.90
18173;DHT22;9211;48.818;9.312;2022-10-23T13:30:58;19.40;99.90
18173;DHT22;9211;48.818;9.312;2022-10-23T13:33:36;19.50;99.90
18173;DHT22;9211;48.818;9.312;2022-10-23T13:36:05;19.50;99.90
18173;DHT22;9211;48.818;9.312;2022-10-23T13:38:46;19.40;99.90
18173;DHT22;9211;48.818;9.312;2022-10-23T13:41:16;19.40;99.90
18173;DHT22;9211;48.818;9.312;2022-10-23T13:43:45;19.40;99.90
18173;DHT22;9211;48.818;9.312;2022-10-23T13:46:13;19.40;99.90
18173;DHT22;9211;48.818;9.312;2022-10-23T13:48:42;19.30;99.90
18173;DHT22;9211;48.818;9.312;2022-10-23T13:51:12;19.30;99.90
18173;DHT22;9211;48.818;9.312;2022-10-23T13:53:41;19.30;99.90
18173;DHT22;9211;48.818;9.312;2022-10-23T13:56:10;19.20;99.90
18173;DHT22;9211;48.818;9.312;2022-10-23T13:58:37;19.20;99.90
18173;DHT22;9211;48.818;9.312;2022-10-23T14:01:04;19.10;99.90
18173;DHT22;9211;48.818;9.312;2022-10-23T14:03:31;19.00;99.90
18173;DHT22;9211;48.818;9.312;2022-10-23T14:06:00;19.00;99.90
18173;DHT22;9211;48.818;9.312;2022-10-23T14:08:27;19.00;99.90
18173;DHT22;9211;48.818;9.312;2022-10-23T14:10:54;18.80;99.90
18173;DHT22;9211;48.818;9.312;2022-10-23T14:13:21;18.70;99.90
18173;DHT22;9211;48.818;9.312;2022-10-23T14:15:52;18.70;99.90
18173;DHT22;9211;48.818;9.312;2022-10-23T14:18:19;18.70;99.90
18173;DHT22;9211;48.818;9.312;2022-10-23T14:20:46;18.60;99.90
18173;DHT22;9211;48.818;9.312;2022-10-23T14:23:14;18.50;99.90
18173;DHT22;9211;48.818;9.312;2022-10-23T14:25:41;18.40;99.90
18173;DHT22;9211;48.818;9.312;2022-10-23T14:28:08;18.40;99.90
18173;DHT22;9211;48.818;9.312;2022-10-23T14:30:35;18.30;99.90
18173;DHT22;9211;48.818;9.312;2022-10-23T14:33:03;18.30;99.90
18173;DHT22;9211;48.818;9.312;2022-10-23T14:35:30;18.20;99.90
18173;DHT22;9211;48.818;9.312;2022-10-23T14:37:57;18.20;99.90
18173;DHT22;9211;48.818;9.312;2022-10-23T14:40:25;18.20;99.90
18173;DHT22;9211;48.818;9.312;2022-10-23T14:42:52;18.10;99.90
18173;DHT22;9211;48.818;9.312;2022-10-23T14:45:19;18.10;99.90
18173;DHT22;9211;48.818;9.312;2022-10-23T14:47:46;18.10;99.90
18173;DHT22;9211;48.818;9.312;2022-10-23T14:50:14;18.00;99.90
18173;DHT22;9211;48.818;9.312;2022-10-23T14:52:41;18.00;99.90
18173;DHT22;9211;48.818;9.312;2022-10-23T14:55:08;18.00;99.90
18173;DHT22;9211;48.818;9.312;2022-10-23T14:57:36;17.90;99.90
18173;DHT22;9211;48.818;9.312;2022-10-23T15:00:04;17.90;99.90
18173;DHT22;9211;48.818;9.312;2022-10-23T15:02:31;17.90;99.90
18173;DHT22;9211;48.818;9.312;2022-10-23T15:04:58;17.90;99.90
18173;DHT22;9211;48.818;9.312;2022-10-23T15:07:25;17.90;99.90
18173;DHT22;9211;48.818;9.312;2022-10-23T15:09:52;17.90;99.90
18173;DHT22;9211;48.818;9.312;2022-10-23T15:12:20;17.90;99.90
18173;DHT22;9211;48.818;9.312;2022-10-23T15:14:48;17.80;99.90
18173;DHT22;9211;48.818;9.312;2022-10-23T15:17:15;17.80;99.90
18173;DHT22;9211;48.818;9.312;2022-10-23T15:19:42;17.80;99.90
18173;DHT22;9211;48.818;9.312;2022-10-23T15:22:09;17.70;99.90
18173;DHT22;9211;48.818;9.312;2022-10-23T15:24:36;17.70;99.90
18173;DHT22;9211;48.818;9.312;2022-10-23T15:27:03;17.70;99.90
18173;DHT22;9211;48.818;9.312;2022-10-23T15:29:29;17.70;99.90
18173;DHT22;9211;48.818;9.312;2022-10-23T15:31:58;17.60;99.90
18173;DHT22;9211;48.818;9.312;2022-10-23T15:34:27;17.60;99.90
18173;DHT22;9211;48.818;9.312;2022-10-23T15:36:56;17.60;99.90
18173;DHT22;9211;48.818;9.312;2022-10-23T15:39:24;17.60;99.90
18173;DHT22;9211;48.818;9.312;2022-10-23T15:41:52;17.60;99.90
18173;DHT22;9211;48.818;9.312;2022-10-23T15:44:22;17.60;99.90
18173;DHT22;9211;48.818;9.312;2022-10-23T15:46:49;17.70;99.90
18173;DHT22;9211;48.818;9.312;2022-10-23T15:49:18;17.70;99.90
18173;DHT22;9211;48.818;9.312;2022-10-23T15:51:45;17.80;99.90
18173;DHT22;9211;48.818;9.312;2022-10-23T15:54:14;17.80;99.90
18173;DHT22;9211;48.818;9.312;2022-10-23T15:56:43;18.00;99.90
18173;DHT22;9211;48.818;9.312;2022-10-23T15:59:10;17.90;99.90
18173;DHT22;9211;48.818;9.312;2022-10-23T16:01:37;17.90;99.90
18173;DHT22;9211;48.818;9.312;2022-10-23T16:04:04;17.80;99.90
18173;DHT22;9211;48.818;9.312;2022-10-23T16:06:33;17.70;99.90
18173;DHT22;9211;48.818;9.312;2022-10-23T16:09:00;17.70;99.90
18173;DHT22;9211;48.818;9.312;2022-10-23T16:11:29;17.60;99.90
18173;DHT22;9211;48.818;9.312;2022-10-23T16:13:57;17.50;99.90
18173;DHT22;9211;48.818;9.312;2022-10-23T16:16:26;17.50;99.90
18173;DHT22;9211;48.818;9.312;2022-10-23T16:18:53;17.40;99.90
18173;DHT22;9211;48.818;9.312;2022-10-23T16:21:21;17.40;99.90
18173;DHT22;9211;48.818;9.312;2022-10-23T16:23:51;17.40;99.90